createdAt,value
2018-09-21T00:01:45.527Z,96.70
2018-09-21T00:04:14.342Z,96.70
2018-09-21T00:06:42.531Z,96.90
2018-09-21T00:09:11.907Z,97.00
2018-09-21T00:11:41.082Z,97.10
2018-09-21T00:14:10.449Z,97.20
2018-09-21T00:16:39.392Z,97.20
2018-09-21T00:19:07.444Z,97.20
2018-09-21T00:21:35.450Z,97.00
2018-09-21T00:24:03.695Z,97.20
2018-09-21T00:26:31.936Z,97.30
2018-09-21T00:28:59.901Z,97.50
2018-09-21T00:31:28.007Z,97.60
2018-09-21T00:33:56.048Z,98.00
2018-09-21T00:36:24.189Z,98.00
2018-09-21T00:38:52.404Z,98.20
2018-09-21T00:41:20.485Z,98.20
2018-09-21T00:43:48.645Z,98.50
2018-09-21T00:46:17.693Z,98.70
2018-09-21T00:48:45.737Z,98.80
2018-09-21T00:51:13.785Z,99.10
2018-09-21T00:53:41.802Z,99.40
2018-09-21T00:56:10.898Z,99.60
2018-09-21T00:58:39.031Z,99.80
2018-09-21T01:01:07.185Z,99.90
2018-09-21T01:03:35.234Z,99.90
2018-09-21T01:06:03.501Z,99.90
2018-09-21T01:08:31.980Z,99.90
2018-09-21T01:10:59.971Z,99.90
2018-09-21T01:13:27.965Z,99.90
2018-09-21T01:15:56.041Z,99.90
2018-09-21T01:18:24.219Z,99.90
2018-09-21T01:20:52.269Z,99.90
2018-09-21T01:23:21.357Z,99.90
2018-09-21T01:25:49.407Z,99.90
2018-09-21T01:28:17.660Z,99.90
2018-09-21T01:30:46.515Z,99.90
2018-09-21T01:33:14.653Z,99.90
2018-09-21T01:35:42.778Z,99.90
2018-09-21T01:38:10.853Z,99.90
2018-09-21T01:40:39.007Z,99.90
2018-09-21T01:43:07.115Z,99.90
2018-09-21T01:45:36.186Z,99.90
2018-09-21T01:48:04.326Z,99.90
2018-09-21T01:50:33.303Z,99.90
2018-09-21T01:53:02.512Z,99.90
2018-09-21T01:55:30.615Z,99.90
2018-09-21T01:57:58.732Z,99.90
2018-09-21T02:00:26.795Z,99.90
2018-09-21T02:02:55.573Z,99.90
2018-09-21T02:05:23.804Z,99.90
2018-09-21T02:07:52.140Z,99.90
2018-09-21T02:10:20.325Z,99.90
2018-09-21T02:12:48.361Z,99.90
2018-09-21T02:15:16.473Z,99.90
2018-09-21T02:17:44.599Z,99.90
2018-09-21T02:20:13.549Z,99.90
2018-09-21T02:22:41.659Z,99.90
2018-09-21T02:25:09.853Z,99.90
2018-09-21T02:27:37.942Z,99.90
2018-09-21T02:30:06.210Z,99.90
2018-09-21T02:32:34.278Z,99.90
2018-09-21T02:35:02.462Z,99.90
2018-09-21T02:37:30.561Z,99.90
2018-09-21T02:39:58.960Z,99.90
2018-09-21T02:42:27.548Z,99.90
2018-09-21T02:44:55.567Z,99.90
2018-09-21T02:47:23.752Z,99.90
2018-09-21T02:49:51.723Z,99.90
2018-09-21T02:52:19.713Z,99.90
2018-09-21T02:54:49.638Z,99.90
2018-09-21T02:57:17.727Z,99.90
2018-09-21T02:59:45.806Z,99.90
2018-09-21T03:02:13.835Z,99.90
2018-09-21T03:04:48.419Z,99.90
2018-09-21T03:07:17.240Z,99.90
2018-09-21T03:09:45.323Z,99.90
2018-09-21T03:12:13.383Z,99.90
2018-09-21T03:14:42.622Z,99.90
2018-09-21T03:17:10.697Z,99.90
2018-09-21T03:19:39.433Z,99.90
2018-09-21T03:22:07.565Z,99.90
2018-09-21T03:24:35.630Z,99.90
2018-09-21T03:27:05.164Z,99.90
2018-09-21T03:29:33.274Z,99.90
2018-09-21T03:32:01.283Z,99.90
2018-09-21T03:34:29.321Z,99.90
2018-09-21T03:36:57.581Z,99.90
2018-09-21T03:39:25.639Z,99.90
2018-09-21T03:41:53.611Z,99.90
2018-09-21T03:44:21.754Z,99.90
2018-09-21T03:46:49.702Z,99.90
2018-09-21T03:49:17.759Z,99.90
2018-09-21T03:51:45.999Z,99.90
2018-09-21T03:54:14.046Z,99.90
2018-09-21T03:56:42.050Z,99.90
2018-09-21T03:59:10.657Z,99.90
2018-09-21T04:01:38.741Z,99.90
2018-09-21T04:04:08.594Z,99.90
2018-09-21T04:06:40.070Z,99.90
2018-09-21T04:09:09.778Z,99.90
2018-09-21T04:11:37.921Z,99.90
2018-09-21T04:14:06.070Z,99.90
2018-09-21T04:16:34.268Z,99.90
2018-09-21T04:19:02.879Z,99.90
2018-09-21T04:21:30.970Z,99.90
2018-09-21T04:23:58.973Z,99.90
2018-09-21T04:26:26.947Z,99.90
2018-09-21T04:28:55.046Z,99.90
2018-09-21T04:31:23.037Z,99.90
2018-09-21T04:36:21.309Z,99.90
2018-09-21T04:38:49.299Z,99.90
2018-09-21T04:41:17.422Z,99.90
2018-09-21T04:43:46.815Z,99.90
2018-09-21T04:46:15.052Z,99.90
2018-09-21T04:48:43.184Z,99.90
2018-09-21T04:51:11.644Z,99.90
2018-09-21T04:53:39.744Z,99.90
2018-09-21T04:56:10.180Z,99.90
2018-09-21T04:58:41.410Z,99.90
2018-09-21T05:01:10.934Z,99.90
2018-09-21T05:03:39.054Z,99.90
2018-09-21T05:06:07.272Z,99.90
2018-09-21T05:08:35.410Z,99.90
2018-09-21T05:11:03.644Z,99.90
2018-09-21T05:13:31.750Z,99.90
2018-09-21T05:16:00.806Z,99.90
2018-09-21T05:18:29.501Z,99.90
2018-09-21T05:20:58.724Z,99.90
2018-09-21T05:23:28.943Z,99.90
2018-09-21T05:25:58.244Z,99.90
2018-09-21T05:28:26.527Z,99.90
2018-09-21T05:30:56.153Z,99.90
2018-09-21T05:33:28.153Z,99.90
2018-09-21T05:35:56.541Z,99.90
2018-09-21T05:38:24.953Z,99.90
2018-09-21T05:40:53.072Z,99.90
2018-09-21T05:43:22.239Z,99.90
2018-09-21T05:45:50.849Z,99.90
2018-09-21T05:48:18.993Z,99.90
2018-09-21T05:50:47.007Z,99.90
2018-09-21T05:53:18.512Z,99.90
2018-09-21T05:55:46.572Z,99.90
2018-09-21T05:58:14.490Z,99.90
2018-09-21T06:00:42.391Z,99.90
2018-09-21T06:03:15.950Z,99.90
2018-09-21T06:05:43.866Z,99.90
2018-09-21T06:08:11.757Z,99.90
2018-09-21T06:10:39.599Z,99.90
2018-09-21T06:13:13.062Z,99.90
2018-09-21T06:15:41.123Z,99.90
2018-09-21T06:18:09.003Z,99.90
2018-09-21T06:20:36.909Z,99.90
2018-09-21T06:23:10.849Z,99.90
2018-09-21T06:25:38.717Z,99.90
2018-09-21T06:28:06.583Z,99.90
2018-09-21T06:30:35.761Z,99.90
2018-09-21T06:33:04.581Z,99.90
2018-09-21T06:35:32.477Z,99.90
2018-09-21T06:38:01.245Z,99.90
2018-09-21T06:40:29.109Z,99.90
2018-09-21T06:42:56.997Z,99.90
2018-09-21T06:45:25.046Z,99.90
2018-09-21T06:47:53.044Z,99.90
2018-09-21T06:50:20.925Z,99.90
2018-09-21T06:52:48.963Z,99.90
2018-09-21T06:55:16.783Z,99.90
2018-09-21T06:57:44.747Z,99.90
2018-09-21T07:00:12.645Z,99.90
2018-09-21T07:02:40.511Z,99.90
2018-09-21T07:05:14.113Z,99.90
2018-09-21T07:07:42.466Z,99.90
2018-09-21T07:10:10.606Z,99.90
2018-09-21T07:12:38.570Z,99.90
2018-09-21T07:15:06.655Z,99.90
2018-09-21T07:17:34.575Z,99.90
2018-09-21T07:20:03.847Z,99.90
2018-09-21T07:22:31.667Z,99.90
2018-09-21T07:25:03.511Z,99.90
2018-09-21T07:27:31.654Z,99.90
2018-09-21T07:29:59.557Z,99.90
2018-09-21T07:32:29.687Z,99.90
2018-09-21T07:34:58.649Z,99.90
2018-09-21T07:37:26.536Z,99.90
2018-09-21T07:39:54.685Z,99.90
2018-09-21T07:42:22.563Z,99.90
2018-09-21T07:44:54.136Z,99.90
2018-09-21T07:47:22.091Z,99.90
2018-09-21T07:49:50.022Z,99.90
2018-09-21T07:52:18.020Z,99.90
2018-09-21T07:54:45.897Z,99.90
2018-09-21T07:57:13.737Z,99.90
2018-09-21T07:59:41.641Z,99.90
2018-09-21T08:02:09.584Z,99.90
2018-09-21T08:04:37.557Z,99.90
2018-09-21T08:07:05.486Z,99.90
2018-09-21T08:09:34.127Z,99.90
2018-09-21T08:12:02.848Z,99.90
2018-09-21T08:14:31.891Z,99.90
2018-09-21T08:16:59.757Z,99.90
2018-09-21T08:19:27.796Z,99.90
2018-09-21T08:21:55.634Z,99.90
2018-09-21T08:24:23.581Z,99.90
2018-09-21T08:26:51.754Z,99.90
2018-09-21T08:29:19.909Z,99.90
2018-09-21T08:31:47.767Z,99.90
2018-09-21T08:34:16.045Z,99.90
2018-09-21T08:36:43.949Z,99.90
2018-09-21T08:39:12.330Z,99.90
2018-09-21T08:41:42.036Z,99.90
2018-09-21T08:44:10.193Z,99.90
2018-09-21T08:46:38.148Z,99.90
2018-09-21T08:49:06.354Z,99.90
2018-09-21T08:51:34.298Z,99.90
2018-09-21T08:54:02.183Z,99.90
2018-09-21T08:56:30.612Z,99.90
2018-09-21T08:58:58.583Z,99.90
2018-09-21T09:01:27.135Z,99.90
2018-09-21T09:03:55.379Z,99.90
2018-09-21T09:06:23.287Z,99.90
2018-09-21T09:08:51.305Z,99.90
2018-09-21T09:11:19.542Z,99.90
2018-09-21T09:13:47.433Z,99.90
2018-09-21T09:16:15.409Z,99.90
2018-09-21T09:18:43.683Z,99.90
2018-09-21T09:21:11.621Z,99.90
2018-09-21T09:23:39.608Z,99.90
2018-09-21T09:26:07.987Z,99.90
2018-09-21T09:28:35.994Z,99.90
2018-09-21T09:31:04.057Z,99.90
2018-09-21T09:33:32.235Z,99.90
2018-09-21T09:36:00.341Z,99.90
2018-09-21T09:38:29.025Z,99.90
2018-09-21T09:40:57.999Z,99.90
2018-09-21T09:43:26.106Z,99.90
2018-09-21T09:45:54.104Z,99.90
2018-09-21T09:48:23.485Z,99.90
2018-09-21T09:50:51.477Z,99.90
2018-09-21T09:53:19.478Z,99.90
2018-09-21T09:55:47.837Z,99.90
2018-09-21T09:58:16.419Z,99.90
2018-09-21T10:00:50.459Z,99.90
2018-09-21T10:03:23.200Z,99.90
2018-09-21T10:05:51.177Z,99.90
2018-09-21T10:08:19.268Z,99.90
2018-09-21T10:10:47.305Z,99.90
2018-09-21T10:13:15.613Z,99.90
2018-09-21T10:15:43.623Z,99.90
2018-09-21T10:18:11.673Z,99.90
2018-09-21T10:20:39.958Z,99.90
2018-09-21T10:23:08.109Z,99.90
2018-09-21T10:25:36.101Z,99.90
2018-09-21T10:28:04.267Z,99.70
2018-09-21T10:30:32.482Z,99.90
2018-09-21T10:33:00.487Z,98.50
2018-09-21T10:35:28.593Z,97.30
2018-09-21T10:37:56.722Z,96.80
2018-09-21T10:40:25.314Z,95.90
2018-09-21T10:42:53.777Z,94.60
2018-09-21T10:45:22.003Z,95.30
2018-09-21T10:47:50.280Z,93.80
2018-09-21T10:50:21.834Z,93.70
2018-09-21T10:52:49.921Z,93.90
2018-09-21T10:55:18.124Z,92.30
2018-09-21T10:57:47.063Z,92.60
2018-09-21T11:00:15.004Z,91.60
2018-09-21T11:02:42.813Z,91.90
2018-09-21T11:05:12.758Z,92.50
2018-09-21T11:07:40.833Z,90.80
2018-09-21T11:10:10.023Z,90.50
2018-09-21T11:12:38.099Z,90.30
2018-09-21T11:15:06.191Z,88.20
2018-09-21T11:17:34.079Z,87.70
2018-09-21T11:20:02.033Z,85.20
2018-09-21T11:22:30.075Z,87.20
2018-09-21T11:24:59.137Z,85.90
2018-09-21T11:27:27.261Z,85.50
2018-09-21T11:29:55.165Z,87.60
2018-09-21T11:32:23.625Z,87.30
2018-09-21T11:34:51.546Z,88.40
2018-09-21T11:37:19.458Z,89.20
2018-09-21T11:39:47.336Z,88.50
2018-09-21T11:42:15.243Z,87.60
2018-09-21T11:44:46.669Z,86.90
2018-09-21T11:47:15.320Z,87.60
2018-09-21T11:49:43.059Z,90.40
2018-09-21T11:52:10.980Z,87.70
2018-09-21T11:54:42.589Z,86.30
2018-09-21T11:59:38.037Z,85.10
2018-09-21T12:02:06.853Z,81.50
2018-09-21T12:04:38.095Z,80.70
2018-09-21T12:07:06.037Z,80.20
2018-09-21T12:09:35.017Z,81.40
2018-09-21T12:12:02.865Z,80.70
2018-09-21T12:14:32.117Z,77.50
2018-09-21T12:17:00.142Z,77.60
2018-09-21T12:19:28.103Z,77.80
2018-09-21T12:21:56.275Z,74.80
2018-09-21T12:24:27.425Z,73.40
2018-09-21T12:26:55.359Z,75.40
2018-09-21T12:29:23.573Z,73.20
2018-09-21T12:31:51.565Z,73.20
2018-09-21T12:34:19.479Z,73.90
2018-09-21T12:36:47.736Z,74.50
2018-09-21T12:39:15.669Z,76.30
2018-09-21T12:41:43.783Z,74.20
2018-09-21T12:44:13.368Z,66.10
2018-09-21T12:46:41.346Z,61.50
2018-09-21T12:49:09.270Z,62.50
2018-09-21T12:51:37.174Z,60.90
2018-09-21T12:54:08.227Z,60.40
2018-09-21T12:56:36.127Z,58.80
2018-09-21T12:59:05.071Z,58.50
2018-09-21T13:01:32.906Z,59.00
2018-09-21T13:04:00.774Z,56.00
2018-09-21T13:06:29.063Z,57.20
2018-09-21T13:08:56.897Z,53.00
2018-09-21T13:11:24.865Z,50.60
2018-09-21T13:14:00.761Z,52.30
2018-09-21T13:16:28.837Z,50.40
2018-09-21T13:18:56.867Z,50.10
2018-09-21T13:21:26.534Z,48.70
2018-09-21T13:24:06.349Z,48.50
2018-09-21T13:26:34.488Z,49.40
2018-09-21T13:29:02.755Z,49.10
2018-09-21T13:31:32.520Z,48.70
2018-09-21T13:34:10.637Z,46.00
2018-09-21T13:36:39.181Z,47.90
2018-09-21T13:39:09.685Z,48.80
2018-09-21T13:41:37.701Z,47.50
2018-09-21T13:44:05.694Z,48.70
2018-09-21T13:46:33.939Z,49.70
2018-09-21T13:49:01.893Z,50.30
2018-09-21T13:51:29.763Z,51.40
2018-09-21T13:53:58.985Z,50.80
2018-09-21T13:56:27.875Z,52.20
2018-09-21T13:58:56.833Z,51.50
2018-09-21T14:01:26.148Z,51.10
2018-09-21T14:03:54.823Z,50.30
2018-09-21T14:06:22.805Z,50.00
2018-09-21T14:08:50.769Z,50.50
2018-09-21T14:11:18.962Z,50.50
2018-09-21T14:13:46.877Z,50.40
2018-09-21T14:16:15.020Z,49.90
2018-09-21T14:18:42.989Z,50.80
2018-09-21T14:21:11.024Z,49.90
2018-09-21T14:23:40.556Z,50.60
2018-09-21T14:26:08.737Z,50.80
2018-09-21T14:28:36.961Z,50.30
2018-09-21T14:31:05.165Z,51.90
2018-09-21T14:33:33.303Z,50.20
2018-09-21T14:36:01.523Z,50.60
2018-09-21T14:38:29.490Z,48.60
2018-09-21T14:40:57.746Z,48.70
2018-09-21T14:43:25.788Z,47.80
2018-09-21T14:45:53.694Z,46.50
2018-09-21T14:48:21.604Z,46.40
2018-09-21T14:50:49.637Z,46.70
2018-09-21T14:53:23.826Z,46.50
2018-09-21T14:55:52.762Z,46.50
2018-09-21T14:58:20.730Z,46.90
2018-09-21T15:00:49.060Z,47.50
2018-09-21T15:03:27.328Z,46.60
2018-09-21T15:05:55.986Z,47.20
2018-09-21T15:08:24.129Z,46.40
2018-09-21T15:10:52.395Z,47.20
2018-09-21T15:13:20.387Z,47.70
2018-09-21T15:15:49.252Z,47.70
2018-09-21T15:18:17.568Z,48.30
2018-09-21T15:20:45.818Z,48.10
2018-09-21T15:23:14.852Z,46.20
2018-09-21T15:25:42.884Z,47.10
2018-09-21T15:28:11.190Z,48.80
2018-09-21T15:30:39.246Z,48.90
2018-09-21T15:33:08.341Z,49.30
2018-09-21T15:35:36.496Z,49.70
2018-09-21T15:38:05.205Z,50.80
2018-09-21T15:40:33.532Z,51.60
2018-09-21T15:43:01.894Z,51.60
2018-09-21T15:45:30.730Z,52.60
2018-09-21T15:47:58.676Z,52.00
2018-09-21T15:50:26.894Z,52.40
2018-09-21T15:52:54.814Z,52.40
2018-09-21T15:55:22.865Z,53.40
2018-09-21T15:57:51.831Z,54.90
2018-09-21T16:00:21.638Z,55.10
2018-09-21T16:02:49.554Z,55.10
2018-09-21T16:05:18.200Z,56.00
2018-09-21T16:07:46.321Z,55.30
2018-09-21T16:10:14.242Z,56.20
2018-09-21T16:12:42.297Z,56.90
2018-09-21T16:15:11.362Z,56.70
2018-09-21T16:17:39.217Z,55.90
2018-09-21T16:20:07.437Z,56.40
2018-09-21T16:22:35.410Z,55.30
2018-09-21T16:25:05.694Z,54.10
2018-09-21T16:27:34.512Z,53.80
2018-09-21T16:30:02.828Z,53.50
2018-09-21T16:32:35.867Z,53.40
2018-09-21T16:35:08.360Z,53.90
2018-09-21T16:37:36.897Z,55.00
2018-09-21T16:40:05.557Z,55.20
2018-09-21T16:42:34.402Z,55.50
2018-09-21T16:45:05.131Z,55.40
2018-09-21T16:47:33.087Z,55.40
2018-09-21T16:50:01.125Z,55.70
2018-09-21T16:52:29.287Z,55.60
2018-09-21T16:55:05.997Z,54.40
2018-09-21T16:57:34.842Z,54.40
2018-09-21T17:00:02.929Z,55.40
2018-09-21T17:02:31.193Z,55.40
2018-09-21T17:05:09.500Z,55.70
2018-09-21T17:07:37.529Z,56.60
2018-09-21T17:10:05.699Z,57.40
2018-09-21T17:12:33.769Z,58.20
2018-09-21T17:15:05.995Z,58.90
2018-09-21T17:17:34.862Z,60.30
2018-09-21T17:20:02.922Z,60.50
2018-09-21T17:22:31.085Z,60.50
2018-09-21T17:24:59.486Z,61.10
2018-09-21T17:27:27.585Z,61.90
2018-09-21T17:29:55.651Z,62.30
2018-09-21T17:32:24.259Z,62.90
2018-09-21T17:34:59.045Z,63.30
2018-09-21T17:37:27.016Z,63.90
2018-09-21T17:39:56.449Z,64.60
2018-09-21T17:42:24.509Z,65.00
2018-09-21T17:44:53.891Z,65.20
2018-09-21T17:47:21.982Z,65.70
2018-09-21T17:49:50.149Z,65.90
2018-09-21T17:52:18.284Z,66.30
2018-09-21T17:54:46.547Z,67.20
2018-09-21T17:57:14.692Z,66.20
2018-09-21T17:59:43.165Z,67.10
2018-09-21T18:02:12.073Z,66.90
2018-09-21T18:04:44.385Z,67.20
2018-09-21T18:07:17.019Z,67.80
2018-09-21T18:09:45.603Z,68.00
2018-09-21T18:12:14.480Z,68.30
2018-09-21T18:14:42.635Z,68.90
2018-09-21T18:17:10.767Z,69.20
2018-09-21T18:19:39.633Z,69.20
2018-09-21T18:22:07.796Z,69.70
2018-09-21T18:24:36.277Z,70.00
2018-09-21T18:27:04.516Z,70.10
2018-09-21T18:29:32.621Z,70.70
2018-09-21T18:32:01.259Z,71.00
2018-09-21T18:34:29.348Z,71.60
2018-09-21T18:36:57.413Z,72.40
2018-09-21T18:39:25.885Z,73.10
2018-09-21T18:41:55.336Z,73.80
2018-09-21T18:44:24.496Z,74.30
2018-09-21T18:46:52.745Z,75.00
2018-09-21T18:49:22.623Z,75.50
2018-09-21T18:51:53.890Z,76.00
2018-09-21T18:54:23.434Z,76.70
2018-09-21T18:56:51.886Z,77.10
2018-09-21T18:59:21.809Z,77.60
2018-09-21T19:01:50.261Z,78.30
2018-09-21T19:04:18.774Z,78.60
2018-09-21T19:06:48.095Z,79.60
2018-09-21T19:09:17.509Z,79.80
2018-09-21T19:11:46.205Z,80.00
2018-09-21T19:14:14.546Z,80.00
2018-09-21T19:16:43.071Z,80.30
2018-09-21T19:19:11.321Z,80.40
2018-09-21T19:21:39.943Z,81.00
2018-09-21T19:24:12.399Z,81.40
2018-09-21T19:26:41.338Z,81.80
2018-09-21T19:29:10.058Z,81.90
2018-09-21T19:31:38.985Z,82.60
2018-09-21T19:34:08.068Z,83.10
2018-09-21T19:36:36.909Z,83.50
2018-09-21T19:39:09.047Z,83.60
2018-09-21T19:41:38.351Z,84.20
2018-09-21T19:44:07.164Z,84.70
2018-09-21T19:46:35.968Z,85.40
2018-09-21T19:49:04.806Z,86.40
2018-09-21T19:51:33.342Z,86.80
2018-09-21T19:54:02.006Z,87.80
2018-09-21T19:56:31.170Z,89.00
2018-09-21T19:58:59.476Z,89.40
2018-09-21T20:01:27.636Z,90.10
2018-09-21T20:03:56.145Z,90.40
2018-09-21T20:06:24.245Z,90.90
2018-09-21T20:08:52.531Z,91.40
2018-09-21T20:11:21.583Z,91.50
2018-09-21T20:13:53.912Z,92.10
2018-09-21T20:16:22.403Z,92.30
2018-09-21T20:18:50.988Z,92.70
2018-09-21T20:21:19.534Z,93.30
2018-09-21T20:23:49.891Z,93.50
2018-09-21T20:26:18.225Z,94.20
2018-09-21T20:28:46.529Z,94.30
2018-09-21T20:31:20.022Z,94.80
2018-09-21T20:33:49.432Z,95.40
2018-09-21T20:36:17.995Z,96.00
2018-09-21T20:38:46.085Z,96.40
2018-09-21T20:41:14.245Z,96.80
2018-09-21T20:43:45.895Z,97.50
2018-09-21T20:46:14.071Z,98.00
2018-09-21T20:48:42.323Z,98.30
2018-09-21T20:51:10.533Z,98.40
2018-09-21T20:53:38.684Z,98.70
2018-09-21T20:56:07.532Z,99.10
2018-09-21T20:58:36.497Z,99.60
2018-09-21T21:01:04.952Z,99.90
2018-09-21T21:03:33.691Z,99.90
2018-09-21T21:06:02.801Z,99.90
2018-09-21T21:08:31.285Z,99.90
2018-09-21T21:10:59.529Z,99.90
2018-09-21T21:13:27.659Z,99.90
2018-09-21T21:15:56.001Z,99.90
2018-09-21T21:18:24.025Z,99.90
2018-09-21T21:20:52.150Z,99.90
2018-09-21T21:23:23.227Z,99.90
2018-09-21T21:25:51.297Z,99.90
2018-09-21T21:28:19.596Z,99.90
2018-09-21T21:30:47.639Z,99.90
2018-09-21T21:33:16.862Z,99.90
2018-09-21T21:35:44.783Z,99.90
2018-09-21T21:38:13.369Z,99.90
2018-09-21T21:40:41.574Z,99.90
2018-09-21T21:43:09.835Z,99.90
2018-09-21T21:45:38.527Z,99.90
2018-09-21T21:48:06.943Z,99.90
2018-09-21T21:50:35.177Z,99.90
2018-09-21T21:53:09.247Z,99.90
2018-09-21T21:55:37.626Z,99.90
2018-09-21T21:58:05.883Z,99.90
2018-09-21T22:00:39.463Z,99.90
2018-09-21T22:03:07.697Z,99.90
2018-09-21T22:05:35.956Z,99.90
2018-09-21T22:08:04.438Z,99.90
2018-09-21T22:10:32.580Z,99.90
2018-09-21T22:13:06.733Z,99.90
2018-09-21T22:15:34.757Z,99.90
2018-09-21T22:18:02.788Z,99.90
2018-09-21T22:20:31.193Z,99.90
2018-09-21T22:22:59.287Z,99.90
2018-09-21T22:25:27.949Z,99.90
2018-09-21T22:27:56.159Z,99.90
2018-09-21T22:30:24.421Z,99.90
2018-09-21T22:32:52.440Z,99.90
2018-09-21T22:35:20.530Z,99.90
2018-09-21T22:37:48.705Z,99.90
2018-09-21T22:40:16.975Z,99.90
2018-09-21T22:42:45.355Z,99.90
2018-09-21T22:45:13.599Z,99.90
2018-09-21T22:47:41.686Z,99.90
2018-09-21T22:50:10.069Z,99.90
2018-09-21T22:52:38.209Z,99.90
2018-09-21T22:55:06.437Z,99.90
2018-09-21T22:57:35.062Z,99.90
2018-09-21T23:00:03.269Z,99.90
2018-09-21T23:02:31.381Z,99.90
2018-09-21T23:05:01.686Z,99.90
2018-09-21T23:07:29.827Z,99.90
2018-09-21T23:09:58.021Z,99.90
2018-09-21T23:12:26.319Z,99.90
2018-09-21T23:14:54.403Z,99.90
2018-09-21T23:17:22.569Z,99.90
2018-09-21T23:19:50.921Z,99.90
2018-09-21T23:22:19.153Z,99.90
2018-09-21T23:24:53.194Z,99.90
2018-09-21T23:27:21.425Z,99.90
2018-09-21T23:29:49.503Z,99.90
2018-09-21T23:32:18.203Z,99.90
2018-09-21T23:34:52.673Z,99.90
2018-09-21T23:37:20.949Z,99.90
2018-09-21T23:39:49.038Z,99.90
2018-09-21T23:42:17.229Z,99.90
2018-09-21T23:44:47.427Z,99.90
2018-09-21T23:47:15.775Z,99.90
2018-09-21T23:49:43.987Z,99.90
2018-09-21T23:52:12.259Z,99.90
2018-09-21T23:54:42.557Z,99.90
2018-09-21T23:57:10.765Z,99.90
2018-09-21T23:59:39.610Z,99.90
